createdAt,value
2023-02-11T00:01:36.374Z,3.38
2023-02-11T00:04:04.114Z,3.05
2023-02-11T00:06:31.085Z,3.40
2023-02-11T00:08:57.628Z,2.70
2023-02-11T00:11:26.631Z,2.80
2023-02-11T00:13:53.045Z,3.17
2023-02-11T00:16:20.193Z,2.90
2023-02-11T00:18:47.140Z,2.75
2023-02-11T00:21:15.090Z,2.55
2023-02-11T00:23:41.646Z,2.38
2023-02-11T00:26:15.072Z,1.90
2023-02-11T00:28:41.461Z,2.15
2023-02-11T00:31:07.948Z,1.83
2023-02-11T00:33:34.370Z,1.60
2023-02-11T00:36:04.745Z,1.70
2023-02-11T00:38:31.088Z,1.40
2023-02-11T00:40:57.502Z,1.80
2023-02-11T00:43:23.880Z,1.60
2023-02-11T00:45:50.522Z,1.60
2023-02-11T00:48:17.253Z,1.50
2023-02-11T00:50:43.579Z,1.50
2023-02-11T00:53:09.970Z,2.00
2023-02-11T00:55:36.450Z,1.85
2023-02-11T00:58:02.876Z,1.88
2023-02-11T01:00:29.426Z,2.08
2023-02-11T01:02:56.009Z,2.03
2023-02-11T01:05:22.414Z,1.80
2023-02-11T01:07:48.779Z,1.65
2023-02-11T01:10:15.168Z,2.15
2023-02-11T01:12:41.556Z,2.20
2023-02-11T01:15:08.604Z,1.77
2023-02-11T01:17:35.445Z,1.83
2023-02-11T01:20:03.512Z,2.20
2023-02-11T01:22:29.861Z,2.38
2023-02-11T01:24:56.260Z,2.38
2023-02-11T01:27:22.589Z,1.80
2023-02-11T01:29:48.908Z,2.20
2023-02-11T01:32:15.336Z,1.80
2023-02-11T01:34:41.702Z,1.50
2023-02-11T01:37:08.119Z,1.88
2023-02-11T01:39:35.016Z,1.80
2023-02-11T01:42:01.441Z,1.60
2023-02-11T01:44:35.263Z,1.77
2023-02-11T01:47:04.678Z,1.83
2023-02-11T01:49:32.878Z,1.65
2023-02-11T01:52:05.084Z,1.98
2023-02-11T01:54:54.927Z,1.65
2023-02-11T01:57:23.105Z,1.45
2023-02-11T01:59:56.424Z,1.20
2023-02-11T02:02:46.116Z,1.25
2023-02-11T02:05:15.265Z,1.58
2023-02-11T02:07:45.007Z,1.85
2023-02-11T02:10:14.035Z,1.55
2023-02-11T02:12:40.516Z,2.08
2023-02-11T02:15:26.805Z,1.77
2023-02-11T02:18:13.395Z,1.50
2023-02-11T02:20:51.982Z,1.88
2023-02-11T02:23:37.194Z,2.10
2023-02-11T02:26:22.383Z,2.55
2023-02-11T02:29:07.592Z,2.33
2023-02-11T02:31:33.998Z,2.53
2023-02-11T02:34:23.385Z,2.20
2023-02-11T02:36:55.685Z,2.50
2023-02-11T02:39:25.151Z,2.13
2023-02-11T02:41:52.041Z,2.20
2023-02-11T02:44:18.854Z,2.35
2023-02-11T02:46:45.447Z,2.25
2023-02-11T02:49:15.524Z,2.17
2023-02-11T02:51:41.850Z,1.73
2023-02-11T02:54:08.244Z,1.50
2023-02-11T02:56:37.600Z,1.55
2023-02-11T02:59:10.644Z,1.90
2023-02-11T03:01:49.861Z,1.50
2023-02-11T03:04:30.946Z,1.20
2023-02-11T03:07:10.170Z,1.58
2023-02-11T03:09:40.455Z,1.27
2023-02-11T03:12:07.703Z,1.40
2023-02-11T03:14:35.727Z,1.60
2023-02-11T03:17:04.571Z,1.38
2023-02-11T03:19:34.427Z,1.60
2023-02-11T03:22:02.591Z,1.40
2023-02-11T03:24:34.128Z,1.38
2023-02-11T03:27:12.835Z,1.38
2023-02-11T03:29:43.135Z,1.30
2023-02-11T03:32:19.301Z,1.25
2023-02-11T03:34:45.709Z,1.35
2023-02-11T03:37:18.076Z,1.15
2023-02-11T03:40:07.775Z,1.00
2023-02-11T03:42:42.957Z,1.30
2023-02-11T03:45:11.359Z,1.50
2023-02-11T03:47:39.917Z,2.15
2023-02-11T03:50:07.788Z,2.40
2023-02-11T03:55:01.678Z,2.00
2023-02-11T03:57:28.388Z,2.35
2023-02-11T03:59:56.520Z,2.30
2023-02-11T04:02:24.382Z,3.15
2023-02-11T04:07:17.032Z,3.10
2023-02-11T04:09:43.421Z,3.00
2023-02-11T04:12:09.839Z,3.05
2023-02-11T04:14:36.330Z,3.72
2023-02-11T04:17:03.151Z,4.07
2023-02-11T04:19:29.553Z,3.42
2023-02-11T04:21:55.939Z,3.08
2023-02-11T04:24:22.401Z,2.75
2023-02-11T04:26:48.793Z,3.00
2023-02-11T04:29:15.195Z,2.50
2023-02-11T04:31:41.571Z,2.47
2023-02-11T04:34:07.981Z,2.40
2023-02-11T04:36:34.331Z,2.08
2023-02-11T04:39:00.718Z,2.85
2023-02-11T04:41:27.101Z,2.67
2023-02-11T04:43:53.443Z,2.30
2023-02-11T04:46:19.868Z,2.30
2023-02-11T04:48:46.210Z,2.47
2023-02-11T04:51:12.581Z,2.42
2023-02-11T04:53:38.963Z,1.92
2023-02-11T04:56:05.445Z,1.90
2023-02-11T04:58:31.856Z,1.95
2023-02-11T05:01:05.414Z,2.00
2023-02-11T05:03:31.788Z,2.30
2023-02-11T05:05:58.103Z,2.28
2023-02-11T05:08:24.435Z,2.45
2023-02-11T05:10:50.771Z,2.78
2023-02-11T05:13:17.117Z,3.15
2023-02-11T05:15:43.498Z,3.10
2023-02-11T05:18:09.937Z,2.85
2023-02-11T05:20:38.128Z,3.83
2023-02-11T05:23:04.534Z,3.90
2023-02-11T05:25:30.863Z,4.32
2023-02-11T05:27:57.206Z,4.00
2023-02-11T05:30:23.567Z,4.05
2023-02-11T05:32:49.893Z,3.95
2023-02-11T05:35:16.375Z,4.13
2023-02-11T05:37:42.726Z,4.28
2023-02-11T05:40:09.290Z,4.30
2023-02-11T05:42:35.696Z,4.18
2023-02-11T05:45:02.160Z,4.45
2023-02-11T05:47:28.513Z,4.38
2023-02-11T05:49:54.855Z,4.10
2023-02-11T05:52:21.946Z,4.35
2023-02-11T05:54:48.505Z,4.60
2023-02-11T05:57:15.038Z,5.30
2023-02-11T05:59:41.351Z,4.70
2023-02-11T06:02:09.845Z,5.55
2023-02-11T06:04:36.721Z,5.10
2023-02-11T06:07:03.416Z,4.78
2023-02-11T06:09:29.739Z,4.78
2023-02-11T06:11:56.250Z,4.53
2023-02-11T06:14:22.651Z,3.97
2023-02-11T06:16:48.984Z,4.40
2023-02-11T06:19:15.336Z,4.07
2023-02-11T06:21:44.267Z,3.45
2023-02-11T06:24:11.235Z,3.95
2023-02-11T06:26:37.577Z,4.30
2023-02-11T06:29:03.976Z,4.68
2023-02-11T06:31:30.468Z,5.28
2023-02-11T06:33:56.924Z,4.82
2023-02-11T06:36:23.332Z,5.03
2023-02-11T06:38:49.757Z,4.90
2023-02-11T06:41:17.164Z,5.07
2023-02-11T06:43:43.691Z,5.40
2023-02-11T06:46:10.090Z,4.90
2023-02-11T06:48:36.466Z,4.97
2023-02-11T06:51:04.803Z,4.88
2023-02-11T06:53:32.215Z,5.05
2023-02-11T06:56:02.383Z,4.63
2023-02-11T06:58:28.761Z,4.43
2023-02-11T07:00:55.110Z,4.00
2023-02-11T07:03:21.534Z,4.05
2023-02-11T07:05:47.934Z,3.60
2023-02-11T07:08:14.391Z,3.58
2023-02-11T07:10:40.839Z,3.58
2023-02-11T07:13:07.176Z,3.45
2023-02-11T07:15:33.761Z,3.60
2023-02-11T07:18:00.204Z,3.58
2023-02-11T07:20:26.539Z,3.60
2023-02-11T07:22:52.905Z,3.67
2023-02-11T07:25:19.292Z,3.47
2023-02-11T07:27:45.621Z,3.60
2023-02-11T07:30:12.446Z,3.17
2023-02-11T07:32:38.794Z,3.42
2023-02-11T07:35:05.471Z,4.32
2023-02-11T07:37:33.388Z,4.25
2023-02-11T07:42:26.012Z,4.20
2023-02-11T07:44:52.361Z,4.50
2023-02-11T07:47:18.752Z,4.15
2023-02-11T07:49:45.359Z,5.00
2023-02-11T07:52:11.733Z,4.63
2023-02-11T07:54:38.177Z,4.57
2023-02-11T07:57:04.616Z,5.00
2023-02-11T07:59:30.991Z,4.68
2023-02-11T08:01:57.351Z,5.13
2023-02-11T08:04:23.783Z,4.60
2023-02-11T08:06:52.709Z,5.40
2023-02-11T08:09:19.156Z,5.50
2023-02-11T08:11:45.541Z,8.15
2023-02-11T08:14:12.355Z,9.38
2023-02-11T08:16:41.521Z,9.68
2023-02-11T08:19:10.493Z,8.13
2023-02-11T08:21:37.024Z,9.88
2023-02-11T08:24:03.787Z,11.13
2023-02-11T08:26:31.768Z,11.35
2023-02-11T08:28:58.960Z,10.45
2023-02-11T08:31:26.672Z,9.00
2023-02-11T08:33:54.589Z,8.45
2023-02-11T08:38:47.447Z,7.90
2023-02-11T08:41:17.173Z,7.22
2023-02-11T08:43:44.424Z,5.93
2023-02-11T08:46:15.689Z,6.05
2023-02-11T08:48:42.424Z,4.65
2023-02-11T08:51:09.974Z,6.00
2023-02-11T08:53:37.001Z,5.88
2023-02-11T08:56:03.665Z,6.13
2023-02-11T08:58:30.018Z,7.05
2023-02-11T09:00:56.548Z,6.57
2023-02-11T09:03:22.946Z,6.53
2023-02-11T09:05:50.166Z,6.45
2023-02-11T09:08:17.007Z,6.00
2023-02-11T09:10:43.483Z,7.15
2023-02-11T09:13:10.137Z,6.10
2023-02-11T09:15:36.509Z,6.88
2023-02-11T09:18:02.933Z,6.75
2023-02-11T09:20:29.331Z,6.38
2023-02-11T09:22:57.103Z,6.57
2023-02-11T09:25:23.435Z,6.03
2023-02-11T09:27:51.323Z,5.72
2023-02-11T09:32:43.994Z,6.63
2023-02-11T09:35:10.338Z,7.95
2023-02-11T09:37:37.483Z,6.68
2023-02-11T09:40:04.248Z,7.78
2023-02-11T09:42:42.613Z,8.95
2023-02-11T09:45:20.167Z,9.30
2023-02-11T09:47:48.129Z,9.65
2023-02-11T09:50:16.889Z,12.30
2023-02-11T09:53:01.601Z,15.77
2023-02-11T09:55:34.226Z,11.18
2023-02-11T09:58:03.346Z,10.93
2023-02-11T10:00:48.601Z,11.02
2023-02-11T10:03:44.353Z,8.65
2023-02-11T10:06:19.912Z,8.60
2023-02-11T10:08:52.400Z,6.68
2023-02-11T10:11:32.069Z,6.20
2023-02-11T10:14:08.792Z,9.23
2023-02-11T10:16:54.011Z,18.85
2023-02-11T10:19:26.422Z,8.90
2023-02-11T10:22:01.914Z,7.57
2023-02-11T10:24:29.176Z,11.00
2023-02-11T10:26:55.654Z,36.53
2023-02-11T10:29:27.726Z,14.98
2023-02-11T10:31:56.601Z,22.52
2023-02-11T10:34:24.489Z,13.18
2023-02-11T10:36:50.923Z,7.85
2023-02-11T10:39:18.743Z,7.05
2023-02-11T10:44:20.435Z,5.53
2023-02-11T10:46:46.910Z,4.82
2023-02-11T10:49:32.765Z,4.68
2023-02-11T10:52:12.804Z,3.90
2023-02-11T10:54:39.153Z,5.10
2023-02-11T10:57:05.579Z,4.47
2023-02-11T10:59:40.134Z,5.05
2023-02-11T11:02:31.852Z,3.53
2023-02-11T11:04:59.658Z,3.75
2023-02-11T11:09:52.443Z,3.95
2023-02-11T11:12:42.093Z,3.63
2023-02-11T11:15:11.438Z,3.20
2023-02-11T11:17:38.095Z,3.65
2023-02-11T11:20:20.505Z,3.80
2023-02-11T11:22:47.896Z,3.97
2023-02-11T11:25:22.050Z,4.25
2023-02-11T11:27:52.367Z,3.65
2023-02-11T11:30:19.140Z,3.40
2023-02-11T11:32:46.031Z,4.80
2023-02-11T11:35:21.687Z,4.80
2023-02-11T11:37:52.737Z,4.35
2023-02-11T11:40:23.615Z,4.93
2023-02-11T11:43:23.427Z,5.78
2023-02-11T11:45:57.253Z,5.10
2023-02-11T11:48:35.382Z,5.55
2023-02-11T11:51:04.107Z,5.05
2023-02-11T11:53:41.574Z,5.78
2023-02-11T11:56:19.748Z,5.40
2023-02-11T11:58:46.106Z,5.85
2023-02-11T12:01:15.703Z,6.03
2023-02-11T12:04:02.480Z,6.35
2023-02-11T12:06:41.139Z,6.43
2023-02-11T12:09:16.559Z,6.50
2023-02-11T12:11:46.009Z,9.95
2023-02-11T12:14:32.624Z,10.63
2023-02-11T12:17:06.171Z,13.98
2023-02-11T12:19:32.508Z,10.75
2023-02-11T12:21:58.826Z,13.88
2023-02-11T12:24:25.284Z,21.30
2023-02-11T12:27:00.410Z,19.77
2023-02-11T12:29:26.740Z,17.05
2023-02-11T12:31:56.137Z,7.80
2023-02-11T12:34:25.293Z,11.38
2023-02-11T12:37:02.870Z,6.03
2023-02-11T12:39:47.879Z,5.75
2023-02-11T12:42:36.487Z,5.65
2023-02-11T12:45:08.917Z,5.05
2023-02-11T12:47:45.105Z,5.25
2023-02-11T12:50:22.195Z,4.45
2023-02-11T12:53:03.087Z,7.13
2023-02-11T12:55:37.289Z,5.50
2023-02-11T12:58:04.110Z,5.78
2023-02-11T13:00:42.472Z,6.35
2023-02-11T13:03:18.941Z,5.30
2023-02-11T13:05:49.413Z,5.68
2023-02-11T13:08:35.659Z,5.07
2023-02-11T13:11:08.340Z,4.95
2023-02-11T13:13:46.080Z,4.95
2023-02-11T13:16:18.582Z,4.90
2023-02-11T13:18:55.389Z,4.30
2023-02-11T13:21:24.440Z,4.38
2023-02-11T13:23:50.756Z,5.05
2023-02-11T13:26:37.366Z,5.88
2023-02-11T13:29:12.532Z,3.80
2023-02-11T13:31:39.047Z,6.13
2023-02-11T13:34:23.039Z,4.82
2023-02-11T13:36:54.876Z,4.28
2023-02-11T13:39:21.691Z,4.38
2023-02-11T13:41:52.466Z,2.83
2023-02-11T13:44:22.508Z,2.90
2023-02-11T13:46:49.838Z,2.80
2023-02-11T13:49:23.886Z,2.80
2023-02-11T13:51:51.264Z,2.53
2023-02-11T13:54:31.590Z,2.95
2023-02-11T13:57:16.262Z,3.10
2023-02-11T13:59:42.586Z,2.90
2023-02-11T14:02:46.577Z,2.95
2023-02-11T14:05:38.762Z,4.15
2023-02-11T14:08:29.668Z,5.15
2023-02-11T14:11:00.020Z,3.78
2023-02-11T14:13:27.449Z,3.72
2023-02-11T14:16:04.280Z,4.07
2023-02-11T14:18:39.572Z,3.53
2023-02-11T14:21:14.264Z,3.15
2023-02-11T14:23:40.987Z,3.63
2023-02-11T14:26:20.098Z,3.92
2023-02-11T14:29:06.783Z,3.50
2023-02-11T14:31:33.170Z,3.47
2023-02-11T14:34:05.156Z,4.00
2023-02-11T14:36:49.724Z,6.10
2023-02-11T14:39:19.179Z,4.55
2023-02-11T14:41:47.180Z,4.68
2023-02-11T14:44:15.488Z,3.78
2023-02-11T14:46:48.832Z,3.72
2023-02-11T14:49:23.450Z,3.80
2023-02-11T14:51:49.787Z,3.65
2023-02-11T14:54:18.010Z,5.18
2023-02-11T14:56:44.860Z,4.60
2023-02-11T14:59:18.708Z,4.77
2023-02-11T15:01:48.583Z,4.68
2023-02-11T15:04:31.787Z,4.25
2023-02-11T15:07:01.875Z,4.55
2023-02-11T15:09:40.553Z,6.45
2023-02-11T15:12:13.563Z,5.18
2023-02-11T15:14:40.716Z,5.20
2023-02-11T15:17:08.435Z,4.43
2023-02-11T15:22:13.818Z,4.35
2023-02-11T15:24:40.500Z,4.50
2023-02-11T15:27:14.554Z,4.90
2023-02-11T15:29:42.844Z,4.32
2023-02-11T15:32:09.284Z,4.90
2023-02-11T15:34:36.123Z,5.60
2023-02-11T15:37:03.534Z,6.18
2023-02-11T15:39:31.380Z,5.32
2023-02-11T15:42:15.375Z,5.88
2023-02-11T15:44:41.740Z,4.57
2023-02-11T15:47:12.089Z,4.53
2023-02-11T15:49:39.691Z,4.43
2023-02-11T15:52:08.171Z,3.70
2023-02-11T15:54:34.615Z,3.70
2023-02-11T15:57:06.940Z,3.85
2023-02-11T15:59:38.118Z,4.00
2023-02-11T16:02:21.879Z,4.30
2023-02-11T16:04:52.251Z,4.00
2023-02-11T16:10:53.444Z,4.68
2023-02-11T16:13:20.455Z,5.00
2023-02-11T16:15:49.295Z,5.20
2023-02-11T16:18:37.712Z,5.82
2023-02-11T16:21:05.041Z,6.22
2023-02-11T16:23:36.002Z,10.60
2023-02-11T16:26:08.858Z,8.73
2023-02-11T16:28:36.505Z,8.52
2023-02-11T16:31:03.688Z,12.18
2023-02-11T16:33:30.268Z,12.27
2023-02-11T16:35:57.770Z,9.93
2023-02-11T16:38:24.124Z,10.30
2023-02-11T16:40:51.110Z,13.52
2023-02-11T16:43:18.767Z,10.23
2023-02-11T16:45:45.342Z,12.18
2023-02-11T16:48:13.598Z,11.20
2023-02-11T16:50:43.521Z,17.02
2023-02-11T16:53:10.413Z,15.10
2023-02-11T16:55:36.765Z,12.80
2023-02-11T16:58:03.165Z,10.93
2023-02-11T17:00:29.960Z,13.95
2023-02-11T17:02:56.373Z,8.88
2023-02-11T17:05:23.175Z,9.65
2023-02-11T17:07:49.768Z,12.75
2023-02-11T17:10:17.384Z,15.30
2023-02-11T17:12:43.754Z,11.60
2023-02-11T17:15:54.161Z,9.63
2023-02-11T17:18:20.996Z,15.63
2023-02-11T17:20:47.342Z,9.30
2023-02-11T17:23:13.693Z,10.57
2023-02-11T17:25:40.694Z,11.27
2023-02-11T17:28:07.778Z,12.47
2023-02-11T17:30:34.286Z,14.00
2023-02-11T17:33:00.769Z,13.55
2023-02-11T17:35:27.423Z,13.27
2023-02-11T17:37:54.058Z,12.98
2023-02-11T17:40:20.590Z,13.10
2023-02-11T17:42:46.940Z,10.57
2023-02-11T17:45:13.790Z,9.90
2023-02-11T17:47:40.416Z,10.02
2023-02-11T17:50:07.220Z,12.10
2023-02-11T17:52:33.582Z,13.88
2023-02-11T17:55:00.004Z,12.60
2023-02-11T17:57:26.377Z,12.32
2023-02-11T17:59:52.768Z,11.85
2023-02-11T18:02:19.388Z,9.90
2023-02-11T18:04:45.809Z,9.52
2023-02-11T18:07:12.389Z,10.30
2023-02-11T18:09:39.366Z,9.85
2023-02-11T18:12:06.035Z,10.87
2023-02-11T18:14:33.834Z,10.70
2023-02-11T18:19:30.421Z,10.38
2023-02-11T18:21:59.147Z,10.00
2023-02-11T18:24:27.012Z,10.55
2023-02-11T18:26:53.325Z,12.32
2023-02-11T18:29:19.715Z,13.77
2023-02-11T18:31:46.217Z,15.60
2023-02-11T18:34:12.861Z,14.85
2023-02-11T18:36:39.446Z,14.50
2023-02-11T18:39:06.214Z,13.32
2023-02-11T18:41:32.763Z,179.57
2023-02-11T18:44:02.666Z,166.93
2023-02-11T18:46:29.457Z,23.60
2023-02-11T18:48:56.340Z,12.18
2023-02-11T18:51:23.191Z,7.67
2023-02-11T18:53:49.607Z,8.48
2023-02-11T18:56:17.480Z,10.35
2023-02-11T19:01:14.610Z,11.18
2023-02-11T19:03:41.180Z,12.65
2023-02-11T19:06:07.821Z,13.95
2023-02-11T19:08:34.250Z,15.13
2023-02-11T19:11:00.684Z,14.30
2023-02-11T19:13:28.382Z,27.55
2023-02-11T19:15:54.773Z,17.02
2023-02-11T19:18:21.119Z,11.73
2023-02-11T19:20:47.513Z,9.48
2023-02-11T19:23:13.860Z,8.90
2023-02-11T19:25:45.039Z,9.00
2023-02-11T19:28:11.539Z,9.25
2023-02-11T19:30:38.082Z,9.00
2023-02-11T19:33:04.587Z,9.48
2023-02-11T19:35:35.197Z,9.27
2023-02-11T19:38:02.137Z,9.02
2023-02-11T19:40:28.531Z,9.53
2023-02-11T19:42:54.880Z,31.48
2023-02-11T19:45:21.332Z,38.38
2023-02-11T19:47:47.742Z,17.38
2023-02-11T19:50:14.126Z,12.05
2023-02-11T19:52:40.838Z,12.10
2023-02-11T19:55:07.539Z,11.18
2023-02-11T19:57:33.919Z,10.10
2023-02-11T20:00:01.431Z,9.90
2023-02-11T20:02:29.217Z,11.50
2023-02-11T20:07:21.997Z,13.75
2023-02-11T20:09:48.393Z,11.85
2023-02-11T20:12:14.856Z,11.50
2023-02-11T20:14:41.259Z,12.25
2023-02-11T20:17:07.650Z,17.05
2023-02-11T20:19:34.007Z,21.77
2023-02-11T20:22:00.488Z,22.63
2023-02-11T20:24:26.893Z,12.30
2023-02-11T20:26:55.928Z,11.65
2023-02-11T20:29:22.918Z,17.02
2023-02-11T20:31:49.968Z,21.20
2023-02-11T20:34:17.662Z,13.60
2023-02-11T20:36:51.397Z,10.55
2023-02-11T20:39:18.601Z,16.67
2023-02-11T20:41:45.991Z,30.35
2023-02-11T20:44:12.568Z,18.38
2023-02-11T20:46:40.533Z,15.73
2023-02-11T20:49:08.579Z,16.15
2023-02-11T20:51:35.018Z,97.85
2023-02-11T20:54:01.517Z,27.25
2023-02-11T20:56:30.075Z,16.95
2023-02-11T20:58:57.697Z,15.23
2023-02-11T21:01:25.555Z,15.13
2023-02-11T21:03:53.329Z,18.27
2023-02-11T21:06:20.420Z,20.05
2023-02-11T21:08:46.842Z,21.67
2023-02-11T21:11:13.405Z,21.10
2023-02-11T21:13:41.193Z,21.65
2023-02-11T21:18:34.275Z,18.85
2023-02-11T21:21:00.811Z,19.80
2023-02-11T21:23:27.303Z,32.75
2023-02-11T21:25:54.008Z,23.35
2023-02-11T21:28:25.993Z,19.33
2023-02-11T21:30:53.788Z,14.35
2023-02-11T21:33:20.379Z,14.05
2023-02-11T21:35:46.721Z,15.18
2023-02-11T21:38:13.103Z,15.23
2023-02-11T21:40:39.552Z,15.65
2023-02-11T21:43:05.992Z,15.68
2023-02-11T21:45:32.545Z,16.63
2023-02-11T21:47:58.944Z,17.77
2023-02-11T21:50:25.271Z,17.55
2023-02-11T21:52:52.674Z,17.40
2023-02-11T21:55:19.181Z,14.90
2023-02-11T22:01:17.938Z,26.27
2023-02-11T22:03:44.906Z,19.20
2023-02-11T22:06:12.520Z,21.37
2023-02-11T22:08:39.397Z,24.77
2023-02-11T22:11:06.876Z,21.03
2023-02-11T22:13:33.731Z,18.60
2023-02-11T22:16:00.933Z,17.23
2023-02-11T22:18:27.744Z,17.92
2023-02-11T22:21:01.314Z,19.20
2023-02-11T22:23:28.040Z,17.35
2023-02-11T22:25:54.713Z,17.38
2023-02-11T22:28:21.402Z,16.83
2023-02-11T22:30:52.687Z,17.27
2023-02-11T22:33:19.011Z,18.30
2023-02-11T22:35:45.459Z,20.20
2023-02-11T22:38:11.783Z,20.13
2023-02-11T22:40:41.920Z,19.63
2023-02-11T22:43:08.321Z,18.52
2023-02-11T22:45:34.936Z,15.20
2023-02-11T22:48:01.356Z,17.20
2023-02-11T22:50:27.710Z,19.67
2023-02-11T22:52:54.032Z,18.38
2023-02-11T22:55:20.403Z,17.70
2023-02-11T22:57:46.795Z,19.02
2023-02-11T23:00:13.550Z,19.33
2023-02-11T23:02:39.944Z,18.67
2023-02-11T23:05:06.492Z,19.45
2023-02-11T23:07:32.818Z,20.13
2023-02-11T23:09:59.314Z,19.70
2023-02-11T23:12:27.028Z,19.00
2023-02-11T23:14:53.421Z,19.10
2023-02-11T23:17:19.842Z,19.70
2023-02-11T23:19:46.196Z,20.45
2023-02-11T23:22:12.510Z,18.73
2023-02-11T23:24:38.893Z,17.20
2023-02-11T23:27:05.309Z,23.92
2023-02-11T23:29:31.751Z,23.00
2023-02-11T23:31:59.027Z,19.70
2023-02-11T23:34:25.635Z,18.65
2023-02-11T23:36:52.735Z,24.08
2023-02-11T23:39:19.088Z,28.55
2023-02-11T23:41:45.820Z,24.85
2023-02-11T23:44:12.170Z,23.65
2023-02-11T23:46:38.782Z,22.92
2023-02-11T23:49:05.182Z,23.75
2023-02-11T23:51:31.495Z,23.25
2023-02-11T23:53:57.876Z,23.35
2023-02-11T23:56:25.791Z,22.67
